sensor_id;sensor_type;location;lat;lon;timestamp;P1;durP1;ratioP1;P2;durP2;ratioP2
55015;SDS011;40919;43.236;21.590;2023-08-07T00:00:27;9.23;;;5.35;;
55015;SDS011;40919;43.236;21.590;2023-08-07T00:02:53;9.02;;;4.65;;
55015;SDS011;40919;43.236;21.590;2023-08-07T00:05:19;7.25;;;4.88;;
55015;SDS011;40919;43.236;21.590;2023-08-07T00:07:44;8.43;;;5.45;;
55015;SDS011;40919;43.236;21.590;2023-08-07T00:10:11;6.15;;;4.70;;
55015;SDS011;40919;43.236;21.590;2023-08-07T00:12:38;6.50;;;5.35;;
55015;SDS011;40919;43.236;21.590;2023-08-07T00:15:04;7.78;;;5.20;;
55015;SDS011;40919;43.236;21.590;2023-08-07T00:17:30;5.80;;;5.18;;
55015;SDS011;40919;43.236;21.590;2023-08-07T00:19:56;11.73;;;5.50;;
55015;SDS011;40919;43.236;21.590;2023-08-07T00:22:22;8.35;;;5.65;;
55015;SDS011;40919;43.236;21.590;2023-08-07T00:24:50;7.07;;;5.47;;
55015;SDS011;40919;43.236;21.590;2023-08-07T00:27:15;6.90;;;5.75;;
55015;SDS011;40919;43.236;21.590;2023-08-07T00:29:41;8.25;;;5.68;;
55015;SDS011;40919;43.236;21.590;2023-08-07T00:32:07;9.73;;;5.53;;
55015;SDS011;40919;43.236;21.590;2023-08-07T00:34:33;9.80;;;6.30;;
55015;SDS011;40919;43.236;21.590;2023-08-07T00:36:59;6.57;;;5.88;;
55015;SDS011;40919;43.236;21.590;2023-08-07T00:39:25;9.23;;;5.72;;
55015;SDS011;40919;43.236;21.590;2023-08-07T00:41:51;8.00;;;5.43;;
55015;SDS011;40919;43.236;21.590;2023-08-07T00:44:17;7.97;;;5.57;;
55015;SDS011;40919;43.236;21.590;2023-08-07T00:46:42;7.70;;;5.70;;
55015;SDS011;40919;43.236;21.590;2023-08-07T00:49:09;7.53;;;6.22;;
55015;SDS011;40919;43.236;21.590;2023-08-07T00:51:37;6.53;;;5.35;;
55015;SDS011;40919;43.236;21.590;2023-08-07T00:54:04;6.78;;;5.50;;
55015;SDS011;40919;43.236;21.590;2023-08-07T00:56:31;9.85;;;5.40;;
55015;SDS011;40919;43.236;21.590;2023-08-07T00:59:00;7.72;;;5.80;;
55015;SDS011;40919;43.236;21.590;2023-08-07T01:01:26;6.32;;;5.55;;
55015;SDS011;40919;43.236;21.590;2023-08-07T01:03:53;10.98;;;5.25;;
55015;SDS011;40919;43.236;21.590;2023-08-07T01:06:19;8.13;;;5.97;;
55015;SDS011;40919;43.236;21.590;2023-08-07T01:08:45;8.23;;;6.10;;
55015;SDS011;40919;43.236;21.590;2023-08-07T01:19:12;7.60;;;6.30;;
55015;SDS011;40919;43.236;21.590;2023-08-07T01:21:50;8.43;;;6.30;;
55015;SDS011;40919;43.236;21.590;2023-08-07T01:24:28;9.20;;;6.50;;
55015;SDS011;40919;43.236;21.590;2023-08-07T01:26:54;12.32;;;6.22;;
55015;SDS011;40919;43.236;21.590;2023-08-07T01:29:30;9.88;;;5.93;;
55015;SDS011;40919;43.236;21.590;2023-08-07T01:32:02;9.57;;;5.78;;
55015;SDS011;40919;43.236;21.590;2023-08-07T01:34:30;8.27;;;6.10;;
55015;SDS011;40919;43.236;21.590;2023-08-07T01:36:57;10.65;;;5.78;;
55015;SDS011;40919;43.236;21.590;2023-08-07T01:39:26;10.60;;;6.78;;
55015;SDS011;40919;43.236;21.590;2023-08-07T01:41:52;10.20;;;6.38;;
55015;SDS011;40919;43.236;21.590;2023-08-07T01:44:18;12.52;;;6.70;;
55015;SDS011;40919;43.236;21.590;2023-08-07T01:46:44;8.73;;;6.30;;
55015;SDS011;40919;43.236;21.590;2023-08-07T01:49:10;8.68;;;5.85;;
55015;SDS011;40919;43.236;21.590;2023-08-07T01:51:35;9.23;;;6.15;;
55015;SDS011;40919;43.236;21.590;2023-08-07T01:54:01;7.43;;;5.15;;
55015;SDS011;40919;43.236;21.590;2023-08-07T01:56:27;9.35;;;6.53;;
55015;SDS011;40919;43.236;21.590;2023-08-07T01:58:53;11.50;;;6.35;;
55015;SDS011;40919;43.236;21.590;2023-08-07T02:01:19;8.27;;;6.88;;
55015;SDS011;40919;43.236;21.590;2023-08-07T02:03:44;10.98;;;6.93;;
55015;SDS011;40919;43.236;21.590;2023-08-07T02:06:10;9.10;;;6.95;;
55015;SDS011;40919;43.236;21.590;2023-08-07T02:08:36;10.65;;;7.15;;
55015;SDS011;40919;43.236;21.590;2023-08-07T02:11:02;12.25;;;6.97;;
55015;SDS011;40919;43.236;21.590;2023-08-07T02:13:28;9.52;;;6.75;;
55015;SDS011;40919;43.236;21.590;2023-08-07T02:15:54;8.98;;;6.22;;
55015;SDS011;40919;43.236;21.590;2023-08-07T02:18:20;12.32;;;5.78;;
55015;SDS011;40919;43.236;21.590;2023-08-07T02:20:45;10.82;;;6.82;;
55015;SDS011;40919;43.236;21.590;2023-08-07T02:23:11;9.30;;;5.35;;
55015;SDS011;40919;43.236;21.590;2023-08-07T02:25:37;9.65;;;5.25;;
55015;SDS011;40919;43.236;21.590;2023-08-07T02:28:03;7.38;;;5.80;;
55015;SDS011;40919;43.236;21.590;2023-08-07T02:30:30;6.90;;;5.15;;
55015;SDS011;40919;43.236;21.590;2023-08-07T02:32:56;7.82;;;5.65;;
55015;SDS011;40919;43.236;21.590;2023-08-07T02:35:22;12.10;;;6.28;;
55015;SDS011;40919;43.236;21.590;2023-08-07T02:37:47;7.82;;;6.18;;
55015;SDS011;40919;43.236;21.590;2023-08-07T02:40:13;11.13;;;6.45;;
55015;SDS011;40919;43.236;21.590;2023-08-07T02:42:40;7.50;;;5.88;;
55015;SDS011;40919;43.236;21.590;2023-08-07T02:45:07;10.68;;;6.10;;
55015;SDS011;40919;43.236;21.590;2023-08-07T02:47:33;8.18;;;5.78;;
55015;SDS011;40919;43.236;21.590;2023-08-07T02:49:59;10.65;;;6.13;;
55015;SDS011;40919;43.236;21.590;2023-08-07T02:52:25;8.35;;;6.30;;
55015;SDS011;40919;43.236;21.590;2023-08-07T02:54:50;6.97;;;5.93;;
55015;SDS011;40919;43.236;21.590;2023-08-07T02:57:16;8.07;;;6.30;;
55015;SDS011;40919;43.236;21.590;2023-08-07T02:59:42;8.15;;;5.85;;
55015;SDS011;40919;43.236;21.590;2023-08-07T03:02:08;13.32;;;6.28;;
55015;SDS011;40919;43.236;21.590;2023-08-07T03:04:33;9.05;;;5.40;;
55015;SDS011;40919;43.236;21.590;2023-08-07T03:06:59;6.80;;;5.10;;
55015;SDS011;40919;43.236;21.590;2023-08-07T03:09:26;10.75;;;5.82;;
55015;SDS011;40919;43.236;21.590;2023-08-07T03:11:51;7.13;;;5.97;;
55015;SDS011;40919;43.236;21.590;2023-08-07T03:14:17;13.73;;;6.13;;
55015;SDS011;40919;43.236;21.590;2023-08-07T03:16:44;12.77;;;5.72;;
55015;SDS011;40919;43.236;21.590;2023-08-07T03:19:10;10.23;;;6.97;;
55015;SDS011;40919;43.236;21.590;2023-08-07T03:21:36;8.45;;;6.18;;
55015;SDS011;40919;43.236;21.590;2023-08-07T03:24:02;9.45;;;6.10;;
55015;SDS011;40919;43.236;21.590;2023-08-07T03:26:27;12.65;;;6.28;;
55015;SDS011;40919;43.236;21.590;2023-08-07T03:28:53;12.18;;;5.88;;
55015;SDS011;40919;43.236;21.590;2023-08-07T03:31:19;9.88;;;6.63;;
55015;SDS011;40919;43.236;21.590;2023-08-07T03:33:45;9.27;;;5.82;;
55015;SDS011;40919;43.236;21.590;2023-08-07T03:36:11;9.00;;;6.00;;
55015;SDS011;40919;43.236;21.590;2023-08-07T03:38:36;9.80;;;5.55;;
55015;SDS011;40919;43.236;21.590;2023-08-07T03:41:02;15.45;;;6.15;;
55015;SDS011;40919;43.236;21.590;2023-08-07T03:43:28;11.13;;;6.25;;
55015;SDS011;40919;43.236;21.590;2023-08-07T03:45:55;17.80;;;8.98;;
55015;SDS011;40919;43.236;21.590;2023-08-07T03:48:23;16.85;;;7.43;;
55015;SDS011;40919;43.236;21.590;2023-08-07T03:50:49;13.38;;;7.93;;
55015;SDS011;40919;43.236;21.590;2023-08-07T03:53:15;16.45;;;7.85;;
55015;SDS011;40919;43.236;21.590;2023-08-07T03:55:41;18.55;;;9.27;;
55015;SDS011;40919;43.236;21.590;2023-08-07T03:58:07;10.63;;;7.13;;
55015;SDS011;40919;43.236;21.590;2023-08-07T04:00:33;10.82;;;6.38;;
55015;SDS011;40919;43.236;21.590;2023-08-07T04:02:59;9.93;;;7.10;;
55015;SDS011;40919;43.236;21.590;2023-08-07T04:05:24;13.23;;;6.70;;
55015;SDS011;40919;43.236;21.590;2023-08-07T04:07:50;9.32;;;7.05;;
55015;SDS011;40919;43.236;21.590;2023-08-07T04:10:16;12.45;;;7.40;;
55015;SDS011;40919;43.236;21.590;2023-08-07T04:12:42;15.40;;;7.60;;
55015;SDS011;40919;43.236;21.590;2023-08-07T04:15:07;11.95;;;7.13;;
55015;SDS011;40919;43.236;21.590;2023-08-07T04:17:35;10.15;;;7.72;;
55015;SDS011;40919;43.236;21.590;2023-08-07T04:20:01;11.75;;;8.18;;
55015;SDS011;40919;43.236;21.590;2023-08-07T04:22:28;14.63;;;8.32;;
55015;SDS011;40919;43.236;21.590;2023-08-07T04:24:54;11.18;;;8.63;;
55015;SDS011;40919;43.236;21.590;2023-08-07T04:27:20;10.82;;;8.07;;
55015;SDS011;40919;43.236;21.590;2023-08-07T04:29:45;14.23;;;7.50;;
55015;SDS011;40919;43.236;21.590;2023-08-07T04:32:11;9.55;;;6.68;;
55015;SDS011;40919;43.236;21.590;2023-08-07T04:34:37;9.57;;;8.50;;
55015;SDS011;40919;43.236;21.590;2023-08-07T04:37:03;11.98;;;7.68;;
55015;SDS011;40919;43.236;21.590;2023-08-07T04:39:30;8.35;;;7.32;;
55015;SDS011;40919;43.236;21.590;2023-08-07T04:41:57;9.57;;;7.03;;
55015;SDS011;40919;43.236;21.590;2023-08-07T04:44:22;8.35;;;7.00;;
55015;SDS011;40919;43.236;21.590;2023-08-07T04:46:48;9.43;;;8.43;;
55015;SDS011;40919;43.236;21.590;2023-08-07T04:49:14;13.48;;;7.80;;
55015;SDS011;40919;43.236;21.590;2023-08-07T04:51:40;11.35;;;6.90;;
55015;SDS011;40919;43.236;21.590;2023-08-07T04:54:05;10.70;;;7.35;;
55015;SDS011;40919;43.236;21.590;2023-08-07T04:56:31;12.73;;;8.48;;
55015;SDS011;40919;43.236;21.590;2023-08-07T04:58:57;9.90;;;7.57;;
55015;SDS011;40919;43.236;21.590;2023-08-07T05:01:23;16.23;;;7.97;;
55015;SDS011;40919;43.236;21.590;2023-08-07T05:03:48;12.50;;;7.40;;
55015;SDS011;40919;43.236;21.590;2023-08-07T05:06:14;10.75;;;7.25;;
55015;SDS011;40919;43.236;21.590;2023-08-07T05:08:40;8.35;;;7.28;;
55015;SDS011;40919;43.236;21.590;2023-08-07T05:11:06;10.45;;;7.82;;
55015;SDS011;40919;43.236;21.590;2023-08-07T05:13:31;9.23;;;7.22;;
55015;SDS011;40919;43.236;21.590;2023-08-07T05:15:57;12.15;;;7.32;;
55015;SDS011;40919;43.236;21.590;2023-08-07T05:18:23;9.55;;;8.55;;
55015;SDS011;40919;43.236;21.590;2023-08-07T05:20:49;9.77;;;8.38;;
55015;SDS011;40919;43.236;21.590;2023-08-07T05:23:14;13.52;;;9.55;;
55015;SDS011;40919;43.236;21.590;2023-08-07T05:25:40;12.40;;;9.73;;
55015;SDS011;40919;43.236;21.590;2023-08-07T05:28:06;11.43;;;9.73;;
55015;SDS011;40919;43.236;21.590;2023-08-07T05:30:32;15.68;;;10.68;;
55015;SDS011;40919;43.236;21.590;2023-08-07T05:32:58;17.10;;;10.98;;
55015;SDS011;40919;43.236;21.590;2023-08-07T05:35:24;19.50;;;12.38;;
55015;SDS011;40919;43.236;21.590;2023-08-07T05:37:50;14.85;;;12.00;;
55015;SDS011;40919;43.236;21.590;2023-08-07T05:40:15;18.20;;;12.20;;
55015;SDS011;40919;43.236;21.590;2023-08-07T05:42:41;15.25;;;11.30;;
55015;SDS011;40919;43.236;21.590;2023-08-07T05:45:07;15.60;;;12.50;;
55015;SDS011;40919;43.236;21.590;2023-08-07T05:47:35;15.68;;;11.40;;
55015;SDS011;40919;43.236;21.590;2023-08-07T05:50:00;19.02;;;12.23;;
55015;SDS011;40919;43.236;21.590;2023-08-07T05:52:26;18.08;;;11.60;;
55015;SDS011;40919;43.236;21.590;2023-08-07T05:54:52;18.33;;;11.05;;
55015;SDS011;40919;43.236;21.590;2023-08-07T05:57:18;17.33;;;11.05;;
55015;SDS011;40919;43.236;21.590;2023-08-07T05:59:44;14.23;;;10.00;;
55015;SDS011;40919;43.236;21.590;2023-08-07T06:02:10;14.63;;;9.48;;
55015;SDS011;40919;43.236;21.590;2023-08-07T06:04:36;15.68;;;10.48;;
55015;SDS011;40919;43.236;21.590;2023-08-07T06:07:03;10.73;;;8.88;;
55015;SDS011;40919;43.236;21.590;2023-08-07T06:09:29;12.52;;;8.32;;
55015;SDS011;40919;43.236;21.590;2023-08-07T06:11:55;17.10;;;9.98;;
55015;SDS011;40919;43.236;21.590;2023-08-07T06:14:21;13.73;;;7.60;;
55015;SDS011;40919;43.236;21.590;2023-08-07T06:16:47;10.73;;;8.23;;
55015;SDS011;40919;43.236;21.590;2023-08-07T06:19:13;9.85;;;7.43;;
55015;SDS011;40919;43.236;21.590;2023-08-07T06:21:39;10.65;;;8.35;;
55015;SDS011;40919;43.236;21.590;2023-08-07T06:24:04;9.25;;;6.32;;
55015;SDS011;40919;43.236;21.590;2023-08-07T06:26:30;11.80;;;8.15;;
55015;SDS011;40919;43.236;21.590;2023-08-07T06:28:56;8.98;;;7.78;;
55015;SDS011;40919;43.236;21.590;2023-08-07T06:31:22;13.27;;;8.73;;
55015;SDS011;40919;43.236;21.590;2023-08-07T06:33:49;9.35;;;8.32;;
55015;SDS011;40919;43.236;21.590;2023-08-07T06:36:14;12.57;;;7.85;;
55015;SDS011;40919;43.236;21.590;2023-08-07T06:38:40;9.93;;;8.25;;
55015;SDS011;40919;43.236;21.590;2023-08-07T06:41:06;11.20;;;9.77;;
55015;SDS011;40919;43.236;21.590;2023-08-07T06:43:32;11.27;;;7.65;;
55015;SDS011;40919;43.236;21.590;2023-08-07T06:45:58;12.38;;;8.18;;
55015;SDS011;40919;43.236;21.590;2023-08-07T06:48:24;10.55;;;7.72;;
55015;SDS011;40919;43.236;21.590;2023-08-07T06:50:50;9.75;;;8.30;;
55015;SDS011;40919;43.236;21.590;2023-08-07T06:53:16;13.80;;;8.98;;
55015;SDS011;40919;43.236;21.590;2023-08-07T06:55:43;12.57;;;9.18;;
55015;SDS011;40919;43.236;21.590;2023-08-07T06:58:09;13.15;;;9.27;;
55015;SDS011;40919;43.236;21.590;2023-08-07T07:00:35;10.43;;;9.25;;
55015;SDS011;40919;43.236;21.590;2023-08-07T07:03:02;11.23;;;8.55;;
55015;SDS011;40919;43.236;21.590;2023-08-07T07:05:28;14.18;;;8.85;;
55015;SDS011;40919;43.236;21.590;2023-08-07T07:07:55;11.07;;;8.48;;
55015;SDS011;40919;43.236;21.590;2023-08-07T07:10:21;12.38;;;9.15;;
55015;SDS011;40919;43.236;21.590;2023-08-07T07:12:46;10.80;;;9.65;;
55015;SDS011;40919;43.236;21.590;2023-08-07T07:15:13;11.07;;;8.55;;
55015;SDS011;40919;43.236;21.590;2023-08-07T07:17:39;10.35;;;9.23;;
55015;SDS011;40919;43.236;21.590;2023-08-07T07:20:05;11.45;;;9.20;;
55015;SDS011;40919;43.236;21.590;2023-08-07T07:22:31;12.40;;;11.10;;
55015;SDS011;40919;43.236;21.590;2023-08-07T07:24:57;13.02;;;9.85;;
55015;SDS011;40919;43.236;21.590;2023-08-07T07:27:24;13.43;;;10.57;;
55015;SDS011;40919;43.236;21.590;2023-08-07T07:29:51;11.13;;;10.05;;
55015;SDS011;40919;43.236;21.590;2023-08-07T07:32:17;19.20;;;11.25;;
55015;SDS011;40919;43.236;21.590;2023-08-07T07:34:43;11.13;;;9.93;;
55015;SDS011;40919;43.236;21.590;2023-08-07T07:37:09;12.07;;;10.77;;
55015;SDS011;40919;43.236;21.590;2023-08-07T07:39:35;15.10;;;11.18;;
55015;SDS011;40919;43.236;21.590;2023-08-07T07:42:01;11.60;;;10.43;;
55015;SDS011;40919;43.236;21.590;2023-08-07T07:44:29;14.65;;;10.68;;
55015;SDS011;40919;43.236;21.590;2023-08-07T07:46:56;14.65;;;11.52;;
55015;SDS011;40919;43.236;21.590;2023-08-07T07:49:21;11.50;;;10.30;;
55015;SDS011;40919;43.236;21.590;2023-08-07T07:51:47;11.35;;;10.02;;
55015;SDS011;40919;43.236;21.590;2023-08-07T07:54:14;11.23;;;9.73;;
55015;SDS011;40919;43.236;21.590;2023-08-07T07:56:40;12.32;;;11.13;;
55015;SDS011;40919;43.236;21.590;2023-08-07T07:59:07;13.73;;;10.82;;
55015;SDS011;40919;43.236;21.590;2023-08-07T08:01:32;14.73;;;10.00;;
55015;SDS011;40919;43.236;21.590;2023-08-07T08:03:58;10.60;;;9.32;;
55015;SDS011;40919;43.236;21.590;2023-08-07T08:06:24;11.18;;;10.07;;
55015;SDS011;40919;43.236;21.590;2023-08-07T08:08:50;13.65;;;9.73;;
55015;SDS011;40919;43.236;21.590;2023-08-07T08:11:15;10.48;;;9.40;;
55015;SDS011;40919;43.236;21.590;2023-08-07T08:13:41;14.02;;;11.32;;
55015;SDS011;40919;43.236;21.590;2023-08-07T08:16:07;14.00;;;10.82;;
55015;SDS011;40919;43.236;21.590;2023-08-07T08:18:33;12.10;;;10.80;;
55015;SDS011;40919;43.236;21.590;2023-08-07T08:20:58;11.23;;;9.90;;
55015;SDS011;40919;43.236;21.590;2023-08-07T08:23:24;13.35;;;9.27;;
55015;SDS011;40919;43.236;21.590;2023-08-07T08:25:50;11.60;;;9.65;;
55015;SDS011;40919;43.236;21.590;2023-08-07T08:28:16;13.52;;;9.73;;
55015;SDS011;40919;43.236;21.590;2023-08-07T08:30:42;11.70;;;10.50;;
55015;SDS011;40919;43.236;21.590;2023-08-07T08:33:08;11.32;;;9.35;;
55015;SDS011;40919;43.236;21.590;2023-08-07T08:35:37;12.43;;;9.77;;
55015;SDS011;40919;43.236;21.590;2023-08-07T08:38:03;11.60;;;10.38;;
55015;SDS011;40919;43.236;21.590;2023-08-07T08:40:29;11.63;;;9.07;;
55015;SDS011;40919;43.236;21.590;2023-08-07T08:42:56;9.77;;;8.77;;
55015;SDS011;40919;43.236;21.590;2023-08-07T08:45:25;12.30;;;11.00;;
55015;SDS011;40919;43.236;21.590;2023-08-07T08:47:54;11.98;;;9.70;;
55015;SDS011;40919;43.236;21.590;2023-08-07T08:50:20;11.93;;;10.13;;
55015;SDS011;40919;43.236;21.590;2023-08-07T08:52:47;12.30;;;10.75;;
55015;SDS011;40919;43.236;21.590;2023-08-07T08:55:15;10.23;;;9.18;;
55015;SDS011;40919;43.236;21.590;2023-08-07T08:57:41;11.52;;;9.32;;
55015;SDS011;40919;43.236;21.590;2023-08-07T09:00:08;10.05;;;9.05;;
55015;SDS011;40919;43.236;21.590;2023-08-07T09:02:43;11.35;;;8.50;;
55015;SDS011;40919;43.236;21.590;2023-08-07T09:05:10;9.35;;;8.35;;
55015;SDS011;40919;43.236;21.590;2023-08-07T09:07:36;10.35;;;9.32;;
55015;SDS011;40919;43.236;21.590;2023-08-07T09:10:03;18.13;;;12.85;;
55015;SDS011;40919;43.236;21.590;2023-08-07T09:12:29;12.93;;;9.13;;
55015;SDS011;40919;43.236;21.590;2023-08-07T09:14:58;12.32;;;8.40;;
55015;SDS011;40919;43.236;21.590;2023-08-07T09:17:31;12.90;;;8.10;;
55015;SDS011;40919;43.236;21.590;2023-08-07T09:19:59;8.98;;;7.85;;
55015;SDS011;40919;43.236;21.590;2023-08-07T09:22:25;8.63;;;7.38;;
55015;SDS011;40919;43.236;21.590;2023-08-07T09:24:52;10.75;;;6.88;;
55015;SDS011;40919;43.236;21.590;2023-08-07T09:27:18;11.93;;;7.47;;
55015;SDS011;40919;43.236;21.590;2023-08-07T09:29:44;6.47;;;5.32;;
55015;SDS011;40919;43.236;21.590;2023-08-07T09:32:12;9.85;;;5.50;;
55015;SDS011;40919;43.236;21.590;2023-08-07T09:34:39;8.07;;;5.47;;
55015;SDS011;40919;43.236;21.590;2023-08-07T09:37:06;6.03;;;4.90;;
55015;SDS011;40919;43.236;21.590;2023-08-07T09:39:32;5.10;;;4.43;;
55015;SDS011;40919;43.236;21.590;2023-08-07T09:42:00;7.10;;;4.65;;
55015;SDS011;40919;43.236;21.590;2023-08-07T09:44:34;6.30;;;4.45;;
55015;SDS011;40919;43.236;21.590;2023-08-07T09:47:00;6.22;;;4.45;;
55015;SDS011;40919;43.236;21.590;2023-08-07T09:49:36;7.80;;;3.97;;
55015;SDS011;40919;43.236;21.590;2023-08-07T09:52:04;5.90;;;4.22;;
55015;SDS011;40919;43.236;21.590;2023-08-07T09:54:32;8.13;;;5.22;;
55015;SDS011;40919;43.236;21.590;2023-08-07T09:56:59;5.95;;;4.53;;
55015;SDS011;40919;43.236;21.590;2023-08-07T09:59:26;5.20;;;3.95;;
55015;SDS011;40919;43.236;21.590;2023-08-07T10:01:52;5.60;;;4.30;;
55015;SDS011;40919;43.236;21.590;2023-08-07T10:04:18;6.15;;;4.13;;
55015;SDS011;40919;43.236;21.590;2023-08-07T10:06:45;6.30;;;3.85;;
55015;SDS011;40919;43.236;21.590;2023-08-07T10:09:12;6.03;;;4.38;;
55015;SDS011;40919;43.236;21.590;2023-08-07T10:11:38;5.88;;;4.32;;
55015;SDS011;40919;43.236;21.590;2023-08-07T10:14:05;6.05;;;4.55;;
55015;SDS011;40919;43.236;21.590;2023-08-07T10:16:31;9.93;;;5.10;;
55015;SDS011;40919;43.236;21.590;2023-08-07T10:18:57;8.45;;;4.50;;
55015;SDS011;40919;43.236;21.590;2023-08-07T10:21:24;7.20;;;4.05;;
55015;SDS011;40919;43.236;21.590;2023-08-07T10:23:53;6.72;;;4.75;;
55015;SDS011;40919;43.236;21.590;2023-08-07T10:26:20;7.20;;;4.93;;
55015;SDS011;40919;43.236;21.590;2023-08-07T10:28:47;8.02;;;4.60;;
55015;SDS011;40919;43.236;21.590;2023-08-07T10:31:15;7.13;;;5.10;;
55015;SDS011;40919;43.236;21.590;2023-08-07T10:33:42;5.82;;;5.07;;
55015;SDS011;40919;43.236;21.590;2023-08-07T10:36:09;5.00;;;4.47;;
55015;SDS011;40919;43.236;21.590;2023-08-07T10:38:35;5.80;;;3.80;;
55015;SDS011;40919;43.236;21.590;2023-08-07T10:41:05;6.15;;;4.13;;
55015;SDS011;40919;43.236;21.590;2023-08-07T10:43:36;5.25;;;4.40;;
55015;SDS011;40919;43.236;21.590;2023-08-07T10:46:03;7.53;;;4.20;;
55015;SDS011;40919;43.236;21.590;2023-08-07T10:48:30;5.00;;;3.90;;
55015;SDS011;40919;43.236;21.590;2023-08-07T10:51:14;6.55;;;3.88;;
55015;SDS011;40919;43.236;21.590;2023-08-07T10:53:41;6.00;;;4.95;;
55015;SDS011;40919;43.236;21.590;2023-08-07T10:56:11;5.63;;;4.38;;
55015;SDS011;40919;43.236;21.590;2023-08-07T10:58:41;5.93;;;4.60;;
55015;SDS011;40919;43.236;21.590;2023-08-07T11:01:21;6.32;;;4.38;;
55015;SDS011;40919;43.236;21.590;2023-08-07T11:04:00;5.88;;;4.05;;
55015;SDS011;40919;43.236;21.590;2023-08-07T11:06:27;4.95;;;3.83;;
55015;SDS011;40919;43.236;21.590;2023-08-07T11:08:56;7.07;;;4.47;;
55015;SDS011;40919;43.236;21.590;2023-08-07T11:11:22;7.15;;;5.00;;
55015;SDS011;40919;43.236;21.590;2023-08-07T11:13:49;5.93;;;4.18;;
55015;SDS011;40919;43.236;21.590;2023-08-07T11:16:15;6.80;;;4.57;;
55015;SDS011;40919;43.236;21.590;2023-08-07T11:18:42;5.40;;;4.13;;
55015;SDS011;40919;43.236;21.590;2023-08-07T11:21:09;5.65;;;4.10;;
55015;SDS011;40919;43.236;21.590;2023-08-07T11:23:36;6.63;;;4.38;;
55015;SDS011;40919;43.236;21.590;2023-08-07T11:26:02;5.75;;;3.72;;
55015;SDS011;40919;43.236;21.590;2023-08-07T11:28:28;5.18;;;3.75;;
55015;SDS011;40919;43.236;21.590;2023-08-07T11:30:54;6.65;;;4.13;;
55015;SDS011;40919;43.236;21.590;2023-08-07T11:33:23;6.10;;;4.45;;
55015;SDS011;40919;43.236;21.590;2023-08-07T11:35:49;9.30;;;4.93;;
55015;SDS011;40919;43.236;21.590;2023-08-07T11:38:33;9.15;;;4.40;;
55015;SDS011;40919;43.236;21.590;2023-08-07T11:41:00;6.03;;;3.95;;
55015;SDS011;40919;43.236;21.590;2023-08-07T11:43:29;6.45;;;4.82;;
55015;SDS011;40919;43.236;21.590;2023-08-07T11:45:59;8.68;;;5.03;;
55015;SDS011;40919;43.236;21.590;2023-08-07T11:48:27;9.38;;;4.93;;
55015;SDS011;40919;43.236;21.590;2023-08-07T11:50:53;10.60;;;5.25;;
55015;SDS011;40919;43.236;21.590;2023-08-07T11:53:20;8.63;;;5.47;;
55015;SDS011;40919;43.236;21.590;2023-08-07T11:55:47;5.50;;;4.07;;
55015;SDS011;40919;43.236;21.590;2023-08-07T11:58:13;4.72;;;3.10;;
55015;SDS011;40919;43.236;21.590;2023-08-07T12:00:42;6.28;;;4.28;;
55015;SDS011;40919;43.236;21.590;2023-08-07T12:05:55;5.97;;;4.03;;
55015;SDS011;40919;43.236;21.590;2023-08-07T12:08:22;7.18;;;5.00;;
55015;SDS011;40919;43.236;21.590;2023-08-07T12:10:48;5.25;;;3.55;;
55015;SDS011;40919;43.236;21.590;2023-08-07T12:13:15;6.85;;;4.70;;
55015;SDS011;40919;43.236;21.590;2023-08-07T12:15:41;4.57;;;3.42;;
55015;SDS011;40919;43.236;21.590;2023-08-07T12:18:08;5.78;;;4.20;;
55015;SDS011;40919;43.236;21.590;2023-08-07T12:20:34;5.10;;;2.97;;
55015;SDS011;40919;43.236;21.590;2023-08-07T12:23:00;6.18;;;2.75;;
55015;SDS011;40919;43.236;21.590;2023-08-07T12:25:26;4.75;;;2.63;;
55015;SDS011;40919;43.236;21.590;2023-08-07T12:27:52;4.38;;;2.80;;
55015;SDS011;40919;43.236;21.590;2023-08-07T12:30:18;5.13;;;2.53;;
55015;SDS011;40919;43.236;21.590;2023-08-07T12:32:44;4.43;;;2.75;;
55015;SDS011;40919;43.236;21.590;2023-08-07T12:35:10;4.65;;;2.80;;
55015;SDS011;40919;43.236;21.590;2023-08-07T12:37:36;6.50;;;4.95;;
55015;SDS011;40919;43.236;21.590;2023-08-07T12:40:03;8.25;;;4.65;;
55015;SDS011;40919;43.236;21.590;2023-08-07T12:42:31;6.05;;;3.65;;
55015;SDS011;40919;43.236;21.590;2023-08-07T12:44:57;5.40;;;3.50;;
55015;SDS011;40919;43.236;21.590;2023-08-07T12:47:24;9.00;;;5.55;;
55015;SDS011;40919;43.236;21.590;2023-08-07T12:49:50;6.40;;;4.10;;
55015;SDS011;40919;43.236;21.590;2023-08-07T12:52:17;4.72;;;3.08;;
55015;SDS011;40919;43.236;21.590;2023-08-07T12:54:43;5.63;;;3.08;;
55015;SDS011;40919;43.236;21.590;2023-08-07T12:57:09;4.00;;;2.83;;
55015;SDS011;40919;43.236;21.590;2023-08-07T12:59:35;4.65;;;2.42;;
55015;SDS011;40919;43.236;21.590;2023-08-07T13:02:01;4.60;;;2.08;;
55015;SDS011;40919;43.236;21.590;2023-08-07T13:04:27;4.22;;;1.90;;
55015;SDS011;40919;43.236;21.590;2023-08-07T13:06:53;3.05;;;1.75;;
55015;SDS011;40919;43.236;21.590;2023-08-07T13:09:19;3.95;;;2.33;;
55015;SDS011;40919;43.236;21.590;2023-08-07T13:11:45;3.45;;;2.30;;
55015;SDS011;40919;43.236;21.590;2023-08-07T13:14:11;8.27;;;2.28;;
55015;SDS011;40919;43.236;21.590;2023-08-07T13:16:37;3.97;;;2.25;;
55015;SDS011;40919;43.236;21.590;2023-08-07T13:19:03;5.72;;;2.60;;
55015;SDS011;40919;43.236;21.590;2023-08-07T13:21:30;4.00;;;2.60;;
55015;SDS011;40919;43.236;21.590;2023-08-07T13:23:55;6.43;;;2.78;;
55015;SDS011;40919;43.236;21.590;2023-08-07T13:26:21;3.90;;;2.58;;
55015;SDS011;40919;43.236;21.590;2023-08-07T13:28:47;9.25;;;4.40;;
55015;SDS011;40919;43.236;21.590;2023-08-07T13:31:13;9.68;;;6.78;;
55015;SDS011;40919;43.236;21.590;2023-08-07T13:33:39;5.57;;;3.72;;
55015;SDS011;40919;43.236;21.590;2023-08-07T13:36:05;10.90;;;4.97;;
55015;SDS011;40919;43.236;21.590;2023-08-07T13:38:31;6.70;;;4.57;;
55015;SDS011;40919;43.236;21.590;2023-08-07T13:40:57;10.32;;;7.55;;
55015;SDS011;40919;43.236;21.590;2023-08-07T13:43:23;7.25;;;4.53;;
55015;SDS011;40919;43.236;21.590;2023-08-07T13:45:49;5.93;;;4.30;;
55015;SDS011;40919;43.236;21.590;2023-08-07T13:48:16;5.03;;;2.92;;
55015;SDS011;40919;43.236;21.590;2023-08-07T13:50:42;8.85;;;4.25;;
55015;SDS011;40919;43.236;21.590;2023-08-07T13:53:08;8.43;;;3.10;;
55015;SDS011;40919;43.236;21.590;2023-08-07T13:55:34;4.72;;;2.33;;
55015;SDS011;40919;43.236;21.590;2023-08-07T13:58:00;4.22;;;2.72;;
55015;SDS011;40919;43.236;21.590;2023-08-07T14:00:26;8.40;;;3.50;;
55015;SDS011;40919;43.236;21.590;2023-08-07T14:02:51;3.90;;;2.55;;
55015;SDS011;40919;43.236;21.590;2023-08-07T14:05:17;6.80;;;3.35;;
55015;SDS011;40919;43.236;21.590;2023-08-07T14:07:43;3.92;;;3.03;;
55015;SDS011;40919;43.236;21.590;2023-08-07T14:10:09;3.42;;;2.20;;
55015;SDS011;40919;43.236;21.590;2023-08-07T14:12:35;6.97;;;4.15;;
55015;SDS011;40919;43.236;21.590;2023-08-07T14:15:00;20.80;;;13.93;;
55015;SDS011;40919;43.236;21.590;2023-08-07T14:17:26;24.77;;;13.93;;
55015;SDS011;40919;43.236;21.590;2023-08-07T14:19:52;15.02;;;9.82;;
55015;SDS011;40919;43.236;21.590;2023-08-07T14:22:18;6.70;;;3.70;;
55015;SDS011;40919;43.236;21.590;2023-08-07T14:24:43;5.90;;;2.70;;
55015;SDS011;40919;43.236;21.590;2023-08-07T14:27:09;7.93;;;3.30;;
55015;SDS011;40919;43.236;21.590;2023-08-07T14:29:35;5.18;;;2.35;;
55015;SDS011;40919;43.236;21.590;2023-08-07T14:32:01;4.28;;;2.20;;
55015;SDS011;40919;43.236;21.590;2023-08-07T14:34:27;6.60;;;2.60;;